Time;durP1;ratioP1;P1;durP2;ratioP2;P2;SDS_P1;SDS_P2;PMS_P1;PMS_P2;Temp;Humidity;BMP_temperature;BMP_pressure;BME280_temperature;BME280_humidity;BME280_pressure;Samples;Min_cycle;Max_cycle;Signal;HPM_P1;HPM_P2
2023/05/09 00:01:45;;;;;;;6.80;5.90;;;11.40;93.50;;;;;;5040344;28;20049;-78
2023/05/09 00:04:18;;;;;;;5.55;5.00;;;11.30;93.60;;;;;;5014433;28;20314;-79
2023/05/09 00:07:11;;;;;;;4.80;4.30;;;11.30;93.70;;;;;;5004468;28;20014;-78
2023/05/09 00:09:49;;;;;;;6.22;5.35;;;11.30;93.90;;;;;;5003409;28;20088;-80
2023/05/09 00:12:15;;;;;;;5.15;4.65;;;11.20;94.00;;;;;;5000387;28;20026;-78
2023/05/09 00:14:44;;;;;;;5.50;4.78;;;11.20;94.10;;;;;;5003359;28;20045;-79
2023/05/09 00:17:13;;;;;;;6.00;4.90;;;11.20;94.30;;;;;;5005484;28;20033;-79
2023/05/09 00:19:39;;;;;;;5.47;4.82;;;11.20;94.40;;;;;;5013659;28;20078;-79
2023/05/09 00:22:04;;;;;;;5.85;5.20;;;11.10;94.30;;;;;;5013428;28;20057;-78
2023/05/09 00:24:30;;;;;;;5.45;4.38;;;11.10;94.40;;;;;;5004560;28;20068;-78
2023/05/09 00:26:56;;;;;;;5.75;4.75;;;11.10;94.50;;;;;;5030097;28;20014;-78
2023/05/09 00:29:21;;;;;;;4.35;3.95;;;11.10;94.50;;;;;;5030722;28;20081;-77
2023/05/09 00:31:47;;;;;;;4.57;4.05;;;11.00;94.60;;;;;;5030585;28;20022;-77
2023/05/09 00:34:12;;;;;;;4.57;4.13;;;11.00;94.60;;;;;;5009542;28;20034;-77
2023/05/09 00:36:38;;;;;;;3.80;3.40;;;11.00;94.60;;;;;;5008488;28;20034;-78
2023/05/09 00:39:04;;;;;;;4.07;3.70;;;10.90;94.60;;;;;;5004867;28;20113;-78
2023/05/09 00:41:30;;;;;;;4.35;3.90;;;11.00;94.60;;;;;;4981943;28;20073;-78
2023/05/09 00:43:55;;;;;;;4.90;4.40;;;10.90;94.50;;;;;;5000824;28;20022;-77
2023/05/09 00:46:21;;;;;;;6.47;5.07;;;10.90;94.60;;;;;;5002325;28;20030;-78
2023/05/09 00:48:47;;;;;;;6.80;5.88;;;10.80;94.70;;;;;;5001599;28;20037;-78
2023/05/09 00:51:13;;;;;;;7.50;5.88;;;10.80;94.90;;;;;;5006816;28;20038;-77
2023/05/09 00:53:39;;;;;;;5.45;4.93;;;10.70;95.00;;;;;;5034150;28;20128;-79
2023/05/09 00:56:06;;;;;;;4.25;3.85;;;10.70;95.20;;;;;;5026509;28;20101;-78
2023/05/09 00:58:31;;;;;;;5.07;4.55;;;10.70;95.30;;;;;;5025344;28;20134;-78
2023/05/09 01:00:57;;;;;;;4.75;3.85;;;10.70;95.40;;;;;;5042449;28;20017;-78
2023/05/09 01:03:23;;;;;;;4.22;3.80;;;10.60;95.50;;;;;;5024577;28;20025;-78
2023/05/09 01:06:05;;;;;;;3.97;3.58;;;10.60;95.60;;;;;;5035371;28;20032;-78
2023/05/09 01:08:37;;;;;;;3.67;3.20;;;10.60;95.70;;;;;;5039906;28;20037;-77
2023/05/09 01:11:10;;;;;;;3.35;3.08;;;10.50;95.80;;;;;;5027323;28;20091;-79
2023/05/09 01:13:57;;;;;;;3.10;2.80;;;10.50;96.00;;;;;;5024388;28;20037;-79
2023/05/09 01:16:50;;;;;;;4.32;3.50;;;10.40;96.00;;;;;;5026110;28;20018;-79
2023/05/09 01:19:47;;;;;;;4.10;3.58;;;10.40;96.00;;;;;;4976065;28;20053;-78
2023/05/09 01:22:15;;;;;;;3.50;3.20;;;10.50;96.10;;;;;;5030944;28;20026;-77
2023/05/09 01:25:25;;;;;;;4.30;3.88;;;10.40;96.10;;;;;;5007049;28;20074;-78
2023/05/09 01:28:13;;;;;;;4.00;3.50;;;10.40;96.20;;;;;;4953594;29;20086;-78
2023/05/09 01:30:41;;;;;;;3.30;3.00;;;10.40;96.20;;;;;;5000999;28;20037;-78
2023/05/09 01:33:07;;;;;;;3.20;2.95;;;10.40;96.20;;;;;;5003633;28;20086;-78
2023/05/09 01:35:39;;;;;;;3.60;3.30;;;10.40;96.30;;;;;;4997508;28;20065;-78
2023/05/09 01:38:12;;;;;;;3.08;2.78;;;10.30;96.40;;;;;;5000052;28;20040;-78
2023/05/09 01:40:41;;;;;;;3.40;2.95;;;10.30;96.40;;;;;;4986562;28;20064;-79
2023/05/09 01:43:09;;;;;;;3.08;2.78;;;10.30;96.50;;;;;;4983275;28;20027;-78
2023/05/09 01:45:37;;;;;;;2.70;2.50;;;10.20;96.50;;;;;;5004684;28;20045;-78
2023/05/09 01:48:05;;;;;;;2.75;2.53;;;10.20;96.60;;;;;;5003539;28;20019;-78
2023/05/09 01:50:34;;;;;;;3.35;3.05;;;10.20;96.60;;;;;;5002219;28;20048;-78
2023/05/09 01:53:00;;;;;;;3.08;2.80;;;10.20;96.70;;;;;;5035009;28;20604;-77
2023/05/09 01:55:30;;;;;;;4.10;3.70;;;10.20;96.80;;;;;;5022678;28;20080;-78
2023/05/09 01:57:58;;;;;;;3.40;3.10;;;10.10;96.70;;;;;;5021212;28;20113;-79
2023/05/09 02:00:25;;;;;;;3.22;2.92;;;10.10;96.80;;;;;;5007974;28;20022;-79
2023/05/09 02:02:57;;;;;;;4.07;3.35;;;10.10;96.80;;;;;;5006070;28;20031;-78
2023/05/09 02:05:28;;;;;;;3.63;3.33;;;10.10;96.80;;;;;;4986061;28;20081;-78
2023/05/09 02:07:57;;;;;;;4.40;4.00;;;10.10;96.90;;;;;;5004142;28;20026;-78
2023/05/09 02:10:24;;;;;;;4.00;3.60;;;10.00;96.90;;;;;;4988259;28;20048;-78
2023/05/09 02:13:37;;;;;;;;;;;;;;;;;;;;;
2023/05/09 02:16:33;;;;;;;5.45;3.67;;;10.00;97.00;;;;;;4997580;28;20113;-77
2023/05/09 02:19:02;;;;;;;4.30;3.90;;;10.00;97.10;;;;;;5019873;28;20069;-78
2023/05/09 02:21:28;;;;;;;4.07;3.35;;;9.90;97.00;;;;;;5025193;28;20025;-78
2023/05/09 02:24:04;;;;;;;4.90;4.40;;;9.90;97.10;;;;;;5037257;28;20050;-78
2023/05/09 02:26:34;;;;;;;4.03;3.63;;;9.90;97.10;;;;;;5046872;28;20045;-78
2023/05/09 02:29:37;;;;;;;4.57;3.85;;;9.90;97.10;;;;;;5029255;28;20033;-79
2023/05/09 02:35:45;;;;;;;5.15;4.28;;;9.90;97.20;;;;;;5009967;28;20096;-78
2023/05/09 02:38:16;;;;;;;3.92;3.50;;;9.90;97.20;;;;;;5017341;28;20506;-77
2023/05/09 02:40:45;;;;;;;4.40;4.00;;;9.80;97.20;;;;;;5040563;28;20041;-79
2023/05/09 02:43:11;;;;;;;4.80;4.40;;;9.90;97.30;;;;;;5049579;28;20044;-79
2023/05/09 02:45:37;;;;;;;4.20;3.70;;;9.80;97.40;;;;;;5038510;28;20026;-73
2023/05/09 02:48:09;;;;;;;5.75;4.18;;;9.80;97.50;;;;;;5027159;28;20026;-75
2023/05/09 02:50:34;;;;;;;4.32;3.92;;;9.80;97.90;;;;;;5029384;28;20324;-74
2023/05/09 02:53:00;;;;;;;4.93;4.22;;;9.80;97.80;;;;;;5032671;28;20018;-73
2023/05/09 02:55:26;;;;;;;4.68;4.10;;;9.80;97.80;;;;;;5030574;28;20489;-74
2023/05/09 02:57:51;;;;;;;4.43;3.92;;;9.80;97.80;;;;;;5031348;28;20507;-72
2023/05/09 03:00:18;;;;;;;4.75;3.83;;;9.70;97.70;;;;;;5032228;28;20391;-73
2023/05/09 03:02:44;;;;;;;4.65;4.20;;;9.70;97.80;;;;;;5031285;28;20108;-74
2023/05/09 03:05:10;;;;;;;5.13;4.03;;;9.70;97.80;;;;;;5016454;28;20113;-73
2023/05/09 03:07:36;;;;;;;4.75;4.18;;;9.70;97.80;;;;;;5015149;28;20040;-73
2023/05/09 03:10:01;;;;;;;4.90;4.35;;;9.70;97.80;;;;;;4995670;28;20044;-74
2023/05/09 03:12:27;;;;;;;4.93;4.13;;;9.70;97.90;;;;;;5016142;28;20026;-75
2023/05/09 03:14:53;;;;;;;6.07;5.40;;;9.70;97.90;;;;;;5016637;28;20124;-74
2023/05/09 03:17:20;;;;;;;6.53;5.43;;;9.60;98.00;;;;;;5002150;28;20029;-73
2023/05/09 03:19:47;;;;;;;8.20;6.60;;;9.60;98.00;;;;;;5024949;28;20103;-74
2023/05/09 03:22:13;;;;;;;7.00;6.15;;;9.60;98.10;;;;;;5041914;28;20028;-73
2023/05/09 03:24:39;;;;;;;7.45;5.97;;;9.60;98.20;;;;;;5050125;28;20032;-74
2023/05/09 03:27:04;;;;;;;6.15;4.85;;;9.60;98.30;;;;;;5057505;28;20017;-73
2023/05/09 03:29:37;;;;;;;6.75;6.05;;;9.60;98.40;;;;;;5063977;28;20025;-75
2023/05/09 03:32:03;;;;;;;8.02;6.30;;;9.50;98.50;;;;;;5068576;28;20073;-74
2023/05/09 03:34:29;;;;;;;6.93;5.75;;;9.50;98.70;;;;;;5070023;28;20089;-73
2023/05/09 03:36:55;;;;;;;6.10;5.40;;;9.40;98.80;;;;;;5024224;28;20037;-74
2023/05/09 03:39:21;;;;;;;6.22;5.40;;;9.40;99.10;;;;;;5012997;28;20068;-73
2023/05/09 03:41:48;;;;;;;6.72;5.70;;;9.30;99.30;;;;;;5013207;28;20026;-74
2023/05/09 03:44:13;;;;;;;6.80;5.13;;;9.30;99.40;;;;;;5012847;28;20625;-74
2023/05/09 03:46:39;;;;;;;6.13;5.50;;;9.30;99.60;;;;;;5012909;28;20042;-73
2023/05/09 03:49:05;;;;;;;6.72;5.85;;;9.30;99.70;;;;;;5013380;28;20049;-74
2023/05/09 03:51:31;;;;;;;6.32;5.45;;;9.20;99.70;;;;;;5012837;28;20056;-75
2023/05/09 03:53:57;;;;;;;6.88;5.72;;;9.20;99.80;;;;;;5034106;28;20036;-76
2023/05/09 03:56:23;;;;;;;6.85;5.43;;;9.20;99.90;;;;;;5050757;28;20152;-74
2023/05/09 03:58:48;;;;;;;6.72;5.65;;;9.20;99.90;;;;;;5050879;28;20177;-74
2023/05/09 04:01:14;;;;;;;6.28;5.38;;;9.20;99.90;;;;;;5045931;28;20097;-74
2023/05/09 04:03:41;;;;;;;5.80;4.97;;;9.20;99.90;;;;;;5033108;28;20021;-74
2023/05/09 04:06:07;;;;;;;5.60;4.97;;;9.20;99.90;;;;;;5032857;28;20049;-74
2023/05/09 04:08:32;;;;;;;6.88;5.57;;;9.20;99.90;;;;;;5034051;28;20406;-75
2023/05/09 04:10:58;;;;;;;6.93;6.18;;;9.20;99.90;;;;;;5033038;28;20048;-75
2023/05/09 04:13:24;;;;;;;5.80;4.82;;;9.20;99.90;;;;;;5033230;28;20036;-74
2023/05/09 04:15:50;;;;;;;4.93;4.07;;;9.20;99.90;;;;;;5023455;28;20036;-78
2023/05/09 04:18:16;;;;;;;5.97;4.97;;;9.30;99.90;;;;;;5019236;28;20034;-78
2023/05/09 04:20:41;;;;;;;4.70;4.20;;;9.40;99.90;;;;;;5034697;28;20461;-79
2023/05/09 04:23:07;;;;;;;5.63;4.93;;;9.50;99.90;;;;;;5059458;28;20021;-77
2023/05/09 04:25:33;;;;;;;5.95;5.25;;;9.50;99.90;;;;;;5049476;28;20045;-76
2023/05/09 04:27:59;;;;;;;6.78;5.40;;;9.60;99.90;;;;;;5050154;28;20018;-78
2023/05/09 04:30:27;;;;;;;5.90;4.80;;;9.80;99.90;;;;;;5032381;28;20037;-77
2023/05/09 04:32:54;;;;;;;5.05;4.50;;;9.90;99.60;;;;;;5038780;28;20120;-76
2023/05/09 04:35:20;;;;;;;5.07;4.57;;;10.00;99.10;;;;;;5012879;28;20066;-76
2023/05/09 04:37:50;;;;;;;4.75;4.25;;;10.00;98.90;;;;;;5025855;28;20033;-77
2023/05/09 04:40:16;;;;;;;5.70;4.25;;;10.10;98.70;;;;;;5021303;28;20026;-78
2023/05/09 04:42:42;;;;;;;6.10;5.25;;;10.30;98.40;;;;;;5021882;28;20100;-78
2023/05/09 04:45:10;;;;;;;5.47;4.80;;;10.30;98.00;;;;;;5025236;28;21266;-78
2023/05/09 04:47:36;;;;;;;5.22;4.65;;;10.40;97.70;;;;;;5036666;28;20033;-77
2023/05/09 04:50:02;;;;;;;3.72;3.40;;;10.40;97.50;;;;;;5037087;28;20059;-78
2023/05/09 04:52:28;;;;;;;4.50;3.55;;;10.50;97.30;;;;;;5045734;28;20103;-77
2023/05/09 04:54:54;;;;;;;4.90;3.88;;;10.50;96.80;;;;;;5053705;28;20021;-77
2023/05/09 04:57:20;;;;;;;4.72;4.07;;;10.60;96.50;;;;;;5032747;28;20045;-76
2023/05/09 04:59:46;;;;;;;4.60;4.18;;;10.60;96.40;;;;;;5035191;28;20056;-77
2023/05/09 05:02:11;;;;;;;5.57;5.07;;;10.60;96.10;;;;;;5017924;28;20112;-78
2023/05/09 05:04:40;;;;;;;9.80;7.40;;;10.60;95.80;;;;;;5016070;28;20033;-78
2023/05/09 05:07:12;;;;;;;7.85;6.55;;;10.50;95.70;;;;;;5035989;28;20095;-78
2023/05/09 05:09:38;;;;;;;6.95;6.18;;;10.50;96.00;;;;;;5037585;28;20060;-77
2023/05/09 05:12:07;;;;;;;5.20;4.70;;;10.70;96.00;;;;;;5017034;28;20029;-78
2023/05/09 05:14:33;;;;;;;6.22;4.90;;;11.00;95.50;;;;;;5034232;28;20037;-78
2023/05/09 05:16:59;;;;;;;5.72;4.82;;;11.10;95.20;;;;;;5035983;28;20078;-79
2023/05/09 05:19:25;;;;;;;5.32;4.82;;;11.20;94.70;;;;;;5040077;28;20025;-78
2023/05/09 05:21:50;;;;;;;5.85;4.68;;;11.20;94.50;;;;;;5031701;28;20037;-77
2023/05/09 05:24:16;;;;;;;5.18;4.60;;;11.20;94.50;;;;;;5039206;28;20033;-77
2023/05/09 05:26:41;;;;;;;4.35;3.92;;;11.30;94.50;;;;;;5037155;28;20053;-78
2023/05/09 05:29:07;;;;;;;4.63;4.18;;;11.40;94.30;;;;;;5040810;28;20112;-83
2023/05/09 05:31:33;;;;;;;4.30;3.90;;;11.40;94.30;;;;;;5042088;28;20072;-80
2023/05/09 05:33:59;;;;;;;4.30;3.90;;;11.60;94.20;;;;;;5040510;28;20030;-77
2023/05/09 05:36:24;;;;;;;3.90;3.53;;;11.80;93.80;;;;;;5040868;28;20030;-79
2023/05/09 05:38:50;;;;;;;3.92;3.53;;;11.90;93.60;;;;;;5021100;28;20093;-80
2023/05/09 05:41:16;;;;;;;3.55;3.20;;;12.20;93.10;;;;;;5040005;28;20021;-81
2023/05/09 05:43:41;;;;;;;3.30;2.97;;;12.40;92.70;;;;;;5020745;28;20032;-79
2023/05/09 05:46:07;;;;;;;3.97;3.28;;;12.50;92.20;;;;;;5038866;28;20037;-80
2023/05/09 05:48:33;;;;;;;5.10;3.58;;;12.70;91.50;;;;;;5022209;28;20018;-79
2023/05/09 05:50:58;;;;;;;4.25;3.60;;;12.60;91.30;;;;;;5024804;28;20081;-79
2023/05/09 05:53:24;;;;;;;2.67;2.47;;;12.60;91.40;;;;;;5049247;28;20083;-79
2023/05/09 05:55:50;;;;;;;4.40;4.00;;;12.80;91.60;;;;;;5039817;28;20033;-79
2023/05/09 05:58:16;;;;;;;3.30;3.00;;;14.10;91.30;;;;;;5039525;28;20134;-79
2023/05/09 06:00:42;;;;;;;3.10;2.88;;;;;;;;;;5039271;28;20056;-78
2023/05/09 06:03:12;;;;;;;2.88;2.67;;;18.00;76.90;;;;;;5038887;28;20030;-78
2023/05/09 06:05:41;;;;;;;3.70;2.95;;;19.40;71.50;;;;;;5041260;28;20036;-78
2023/05/09 06:08:07;;;;;;;3.90;3.30;;;20.50;64.60;;;;;;5044836;28;20048;-76
2023/05/09 06:10:33;;;;;;;2.30;2.17;;;21.10;60.80;;;;;;5024320;28;20066;-78
2023/05/09 06:12:59;;;;;;;2.72;2.22;;;21.70;58.70;;;;;;5005063;28;20054;-79
2023/05/09 06:15:24;;;;;;;2.30;1.90;;;22.40;57.50;;;;;;5019292;28;20102;-80
2023/05/09 06:17:50;;;;;;;1.55;1.45;;;23.20;55.00;;;;;;5002569;28;20092;-79
2023/05/09 06:20:16;;;;;;;1.38;1.27;;;23.90;53.70;;;;;;5003883;28;20036;-79
2023/05/09 06:22:42;;;;;;;2.60;1.88;;;24.70;51.60;;;;;;5049171;28;20025;-78
2023/05/09 06:25:07;;;;;;;2.25;1.90;;;25.10;49.60;;;;;;5060311;28;20025;-80
2023/05/09 06:27:33;;;;;;;1.38;1.27;;;25.30;49.10;;;;;;5053591;28;20275;-80
2023/05/09 06:29:59;;;;;;;1.42;1.35;;;25.70;48.40;;;;;;5040279;28;20053;-81
2023/05/09 06:32:25;;;;;;;1.38;1.27;;;26.00;47.30;;;;;;5022096;28;20030;-78
2023/05/09 06:34:51;;;;;;;2.08;1.98;;;26.30;47.00;;;;;;5040166;28;20150;-80
2023/05/09 06:37:17;;;;;;;2.20;2.00;;;25.90;45.80;;;;;;5044044;28;20026;-78
2023/05/09 06:39:42;;;;;;;2.20;2.00;;;25.70;46.20;;;;;;5044472;28;20434;-78
2023/05/09 06:42:08;;;;;;;2.25;1.98;;;25.80;46.50;;;;;;5043633;28;20082;-80
2023/05/09 06:44:34;;;;;;;2.90;2.70;;;25.80;46.20;;;;;;5011095;28;20072;-79
2023/05/09 06:47:00;;;;;;;2.95;2.72;;;25.40;46.00;;;;;;5040064;28;20036;-80
2023/05/09 06:49:26;;;;;;;2.05;1.95;;;25.10;46.80;;;;;;5043035;28;20033;-78
2023/05/09 06:51:52;;;;;;;2.58;2.38;;;25.30;48.10;;;;;;5051676;28;20090;-81
2023/05/09 06:54:21;;;;;;;3.60;3.28;;;25.30;46.30;;;;;;5056808;28;20025;-79
2023/05/09 06:56:46;;;;;;;3.70;3.40;;;25.00;46.50;;;;;;5065019;28;20029;-79
2023/05/09 06:59:12;;;;;;;4.55;4.18;;;24.60;47.10;;;;;;5064113;28;20040;-80
2023/05/09 07:01:41;;;;;;;3.70;3.35;;;24.00;47.70;;;;;;5031619;28;20079;-80
2023/05/09 07:04:07;;;;;;;3.50;3.20;;;22.50;49.70;;;;;;5045667;28;20463;-79
2023/05/09 07:06:33;;;;;;;3.17;2.70;;;20.90;53.00;;;;;;5047042;28;20018;-78
2023/05/09 07:08:58;;;;;;;4.15;3.63;;;19.70;56.00;;;;;;5047787;28;20046;-80
2023/05/09 07:11:24;;;;;;;5.43;4.55;;;18.70;58.10;;;;;;5047273;28;20059;-79
2023/05/09 07:13:50;;;;;;;3.80;3.40;;;17.90;60.90;;;;;;5044375;28;20478;-79
2023/05/09 07:16:17;;;;;;;4.47;3.92;;;17.50;62.80;;;;;;5035782;28;20053;-78
2023/05/09 07:18:43;;;;;;;3.65;3.35;;;17.20;64.10;;;;;;5024899;28;20086;-78
2023/05/09 07:21:08;;;;;;;3.22;3.03;;;17.20;65.70;;;;;;5045050;28;20067;-77
2023/05/09 07:23:34;;;;;;;3.20;2.90;;;17.30;66.00;;;;;;5063018;28;20029;-76
2023/05/09 07:26:00;;;;;;;3.03;2.72;;;17.40;66.20;;;;;;5068152;28;20025;-77
2023/05/09 07:28:26;;;;;;;2.72;2.50;;;17.50;66.20;;;;;;5052455;28;20044;-76
2023/05/09 07:30:54;;;;;;;2.25;2.05;;;17.50;66.40;;;;;;5070862;28;20033;-75
2023/05/09 07:33:20;;;;;;;2.90;2.60;;;17.40;66.80;;;;;;5039105;28;20034;-77
2023/05/09 07:35:45;;;;;;;3.70;3.40;;;17.40;66.70;;;;;;5028765;28;20117;-78
2023/05/09 07:38:11;;;;;;;3.15;2.80;;;17.10;67.60;;;;;;5029913;28;20034;-78
2023/05/09 07:40:37;;;;;;;3.28;3.00;;;17.00;69.00;;;;;;5029906;28;20029;-77
2023/05/09 07:43:03;;;;;;;3.10;2.80;;;17.00;69.00;;;;;;5036139;28;20021;-78
2023/05/09 07:45:29;;;;;;;3.88;2.85;;;17.00;69.70;;;;;;5030835;28;20049;-77
2023/05/09 07:47:54;;;;;;;2.65;2.45;;;17.10;70.00;;;;;;5031010;28;20046;-77
2023/05/09 07:50:22;;;;;;;3.60;3.30;;;17.30;70.30;;;;;;5048951;28;20045;-76
2023/05/09 07:52:48;;;;;;;4.55;3.75;;;17.40;69.40;;;;;;5062063;28;20014;-76
2023/05/09 07:55:16;;;;;;;3.35;3.08;;;17.40;70.00;;;;;;5049975;28;20025;-78
2023/05/09 07:57:42;;;;;;;3.15;2.85;;;17.30;69.90;;;;;;5049590;28;20065;-75
2023/05/09 08:00:10;;;;;;;4.70;3.60;;;17.30;70.70;;;;;;5032108;28;20094;-76
2023/05/09 08:02:35;;;;;;;5.72;5.13;;;17.50;70.70;;;;;;5032206;28;20041;-77
2023/05/09 08:05:02;;;;;;;5.07;4.32;;;17.50;70.40;;;;;;5049264;28;20033;-76
2023/05/09 08:07:27;;;;;;;7.97;4.65;;;17.60;70.90;;;;;;5043521;28;20087;-79
2023/05/09 08:09:56;;;;;;;5.13;4.63;;;17.50;70.90;;;;;;5025362;28;20414;-80
2023/05/09 08:12:22;;;;;;;9.00;6.47;;;17.50;71.10;;;;;;5040911;28;20040;-78
2023/05/09 08:14:48;;;;;;;5.78;5.05;;;17.40;70.80;;;;;;5011846;28;20030;-79
2023/05/09 08:17:13;;;;;;;5.32;4.82;;;17.50;72.50;;;;;;5022068;28;20056;-79
2023/05/09 08:19:39;;;;;;;5.20;4.60;;;17.60;72.00;;;;;;5021955;28;20049;-79
2023/05/09 08:22:05;;;;;;;4.75;4.03;;;17.70;72.30;;;;;;5038140;28;20033;-80
2023/05/09 08:24:31;;;;;;;5.43;4.88;;;17.90;72.30;;;;;;5053072;28;20056;-77
2023/05/09 08:26:57;;;;;;;5.85;5.28;;;18.10;71.00;;;;;;5055144;28;20010;-77
2023/05/09 08:29:22;;;;;;;6.25;5.07;;;18.20;70.50;;;;;;5052236;28;20021;-77
2023/05/09 08:31:48;;;;;;;6.30;5.70;;;18.30;70.70;;;;;;5026924;28;20086;-78
2023/05/09 08:34:14;;;;;;;7.43;6.20;;;18.30;70.80;;;;;;5020627;28;20022;-80
2023/05/09 08:36:40;;;;;;;10.20;6.65;;;18.30;69.90;;;;;;5004348;28;20064;-79
2023/05/09 08:39:06;;;;;;;10.60;6.28;;;18.20;70.00;;;;;;5020935;28;20026;-80
2023/05/09 08:41:34;;;;;;;5.78;5.18;;;17.90;71.20;;;;;;5004252;28;20030;-79
2023/05/09 08:44:00;;;;;;;6.13;5.18;;;17.90;71.60;;;;;;5021534;28;20167;-80
2023/05/09 08:46:32;;;;;;;5.90;4.63;;;17.80;71.90;;;;;;5022431;28;20041;-78
2023/05/09 08:48:59;;;;;;;;;;;17.80;72.70;;;;;;5022284;28;20022;-78
2023/05/09 08:51:25;;;;;;;4.20;3.80;;;17.80;73.00;;;;;;5038749;28;19913;-81
2023/05/09 08:53:51;;;;;;;4.93;3.72;;;17.90;72.90;;;;;;5035619;28;20055;-80
2023/05/09 08:56:17;;;;;;;5.18;4.57;;;18.10;72.70;;;;;;5067881;28;20028;-80
2023/05/09 08:58:43;;;;;;;4.68;4.18;;;18.00;72.10;;;;;;5049594;28;20072;-80
2023/05/09 09:01:12;;;;;;;4.30;3.90;;;18.00;72.20;;;;;;5062470;28;20025;-81
2023/05/09 09:03:38;;;;;;;3.17;2.95;;;18.10;72.00;;;;;;5043980;28;20084;-80
2023/05/09 09:06:07;;;;;;;4.43;4.03;;;18.20;72.20;;;;;;5038862;28;20030;-80
2023/05/09 09:08:34;;;;;;;6.75;5.60;;;18.20;71.30;;;;;;5050268;28;20025;-79
2023/05/09 09:11:00;;;;;;;6.20;5.57;;;18.20;71.20;;;;;;5051489;28;20048;-80
2023/05/09 09:13:27;;;;;;;6.22;5.63;;;18.30;71.50;;;;;;5027316;28;20029;-82
2023/05/09 09:15:57;;;;;;;8.57;6.85;;;18.30;71.30;;;;;;5020238;28;20033;-81
2023/05/09 09:18:28;;;;;;;8.95;7.45;;;18.30;71.40;;;;;;5038365;28;20022;-81
2023/05/09 09:21:05;;;;;;;6.90;6.15;;;18.20;71.20;;;;;;5038023;28;20045;-80
2023/05/09 09:23:31;;;;;;;7.45;6.60;;;18.30;72.10;;;;;;5033353;28;20036;-82
2023/05/09 09:26:03;;;;;;;5.82;4.95;;;18.50;71.30;;;;;;5059070;28;20017;-81
2023/05/09 09:28:28;;;;;;;6.18;5.00;;;18.70;70.80;;;;;;5063843;28;20029;-80
2023/05/09 09:30:55;;;;;;;5.10;4.60;;;19.00;70.20;;;;;;5060865;28;20060;-80
2023/05/09 09:33:23;;;;;;;7.70;6.95;;;19.10;69.30;;;;;;5061216;28;20453;-80
2023/05/09 09:35:50;;;;;;;5.97;5.32;;;19.20;68.80;;;;;;5037977;28;20071;-81
2023/05/09 09:38:20;;;;;;;6.47;5.13;;;19.30;69.10;;;;;;5034808;28;20030;-82
2023/05/09 09:40:55;;;;;;;5.15;4.68;;;19.40;68.50;;;;;;5002394;28;20459;-81
2023/05/09 09:43:31;;;;;;;6.43;5.82;;;19.60;69.10;;;;;;5020938;28;20075;-83
2023/05/09 09:46:00;;;;;;;8.70;7.85;;;19.80;67.70;;;;;;5019705;28;20084;-81
2023/05/09 09:48:32;;;;;;;9.00;7.65;;;19.80;67.20;;;;;;5020359;28;20029;-82
2023/05/09 09:51:07;;;;;;;;;;;19.70;67.80;;;;;;5032395;28;20021;-80
2023/05/09 09:53:39;;;;;;;7.40;5.70;;;19.60;68.40;;;;;;5058047;28;19898;-78
2023/05/09 09:56:05;;;;;;;8.00;6.50;;;19.80;68.40;;;;;;5022286;28;20036;-81
2023/05/09 09:58:30;;;;;;;6.90;6.20;;;19.90;67.00;;;;;;5022181;28;20379;-81
2023/05/09 10:01:07;;;;;;;8.70;7.05;;;19.80;67.50;;;;;;5038559;28;20500;-82
2023/05/09 10:03:41;;;;;;;6.47;5.72;;;19.90;67.50;;;;;;5044048;28;20032;-79
2023/05/09 10:06:14;;;;;;;5.65;5.05;;;19.90;67.70;;;;;;5034656;28;20076;-80
2023/05/09 10:08:41;;;;;;;6.40;5.80;;;20.10;67.60;;;;;;5044278;28;20347;-80
2023/05/09 10:11:09;;;;;;;6.65;5.95;;;20.30;66.60;;;;;;5041428;28;20025;-81
2023/05/09 10:13:36;;;;;;;7.53;6.72;;;20.40;65.90;;;;;;5024137;28;20234;-81
2023/05/09 10:16:03;;;;;;;5.15;4.65;;;20.40;66.10;;;;;;5021371;28;20037;-80
2023/05/09 10:18:30;;;;;;;4.82;3.80;;;20.40;66.50;;;;;;5043148;28;20033;-80
2023/05/09 10:21:02;;;;;;;3.63;3.33;;;20.50;66.40;;;;;;5043873;28;20022;-80
2023/05/09 10:23:31;;;;;;;;;;;20.80;66.10;;;;;;5052189;28;20025;-80
2023/05/09 10:26:17;;;;;;;6.47;5.45;;;21.00;64.40;;;;;;5015668;28;20012;-81
2023/05/09 10:28:47;;;;;;;4.57;4.18;;;21.00;64.50;;;;;;5007985;28;20033;-83
2023/05/09 10:31:27;;;;;;;5.07;4.57;;;21.10;65.00;;;;;;5031282;28;20022;-79
2023/05/09 10:33:57;;;;;;;4.20;3.80;;;21.20;64.20;;;;;;5037486;28;20022;-78
2023/05/09 10:36:23;;;;;;;3.17;2.97;;;21.30;64.30;;;;;;5037296;28;20022;-79
2023/05/09 10:38:52;;;;;;;3.45;3.15;;;21.50;64.00;;;;;;5020132;28;20034;-80
2023/05/09 10:41:20;;;;;;;3.22;2.60;;;21.70;63.20;;;;;;5036409;28;20026;-80
2023/05/09 10:43:47;;;;;;;6.65;5.80;;;21.90;62.60;;;;;;5027465;28;20437;-82
2023/05/09 10:46:13;;;;;;;6.85;6.15;;;21.80;62.10;;;;;;5010843;28;20034;-79
2023/05/09 10:48:41;;;;;;;9.20;8.30;;;21.80;62.50;;;;;;5024103;28;20026;-81
2023/05/09 10:51:07;;;;;;;8.75;7.85;;;21.60;62.60;;;;;;5043810;28;20012;-80
2023/05/09 10:53:44;;;;;;;7.13;6.38;;;21.40;63.00;;;;;;5065199;28;20013;-80
2023/05/09 10:56:31;;;;;;;9.00;8.10;;;21.40;64.10;;;;;;5075064;28;20084;-78
2023/05/09 10:58:57;;;;;;;8.30;7.50;;;21.30;63.20;;;;;;5046506;28;20033;-78
2023/05/09 11:01:35;;;;;;;7.40;6.55;;;21.40;63.60;;;;;;5024176;28;20097;-80
2023/05/09 11:04:09;;;;;;;17.20;10.10;;;21.50;63.70;;;;;;5033485;28;20022;-82
2023/05/09 11:06:47;;;;;;;8.20;7.38;;;21.70;62.30;;;;;;5033546;28;20014;-80
2023/05/09 11:09:27;;;;;;;11.57;8.40;;;21.70;62.50;;;;;;5015534;28;20022;-80
2023/05/09 11:11:56;;;;;;;10.20;8.85;;;21.70;62.20;;;;;;5039481;28;20062;-81
2023/05/09 11:14:34;;;;;;;7.35;6.18;;;21.60;62.10;;;;;;5025749;28;20030;-82
2023/05/09 11:17:03;;;;;;;6.30;4.07;;;21.70;62.80;;;;;;5044528;28;20044;-82
2023/05/09 11:19:35;;;;;;;13.48;9.57;;;;;;;;;;5043165;28;20053;-82
2023/05/09 11:22:11;;;;;;;11.75;10.55;;;22.20;60.50;;;;;;5033336;28;20018;-82
2023/05/09 11:24:37;;;;;;;12.70;10.20;;;22.10;61.00;;;;;;5060350;28;20083;-79
2023/05/09 11:27:15;;;;;;;13.07;11.45;;;21.90;61.40;;;;;;5025122;28;20026;-80
2023/05/09 11:30:05;;;;;;;13.60;9.90;;;21.60;62.10;;;;;;5024492;28;20033;-80
2023/05/09 11:32:32;;;;;;;9.38;8.13;;;21.40;63.30;;;;;;5006642;28;20121;-82
2023/05/09 11:35:11;;;;;;;6.60;6.00;;;21.40;63.70;;;;;;5023488;28;20025;-82
2023/05/09 11:37:51;;;;;;;9.10;8.20;;;21.60;63.80;;;;;;5006322;28;20341;-82
2023/05/09 11:40:18;;;;;;;8.13;7.32;;;21.80;62.60;;;;;;5004427;28;20030;-82
2023/05/09 11:42:47;;;;;;;8.50;6.90;;;22.00;62.40;;;;;;5038593;28;20068;-82
2023/05/09 11:45:13;;;;;;;14.07;12.65;;;22.10;62.20;;;;;;5041892;28;20045;-82
2023/05/09 11:47:39;;;;;;;8.15;7.35;;;22.20;61.30;;;;;;5040802;28;20021;-79
2023/05/09 11:50:13;;;;;;;6.47;5.78;;;22.20;61.60;;;;;;5029014;28;20026;-81
2023/05/09 11:52:40;;;;;;;11.68;10.40;;;22.40;61.40;;;;;;5058576;28;20036;-77
2023/05/09 11:55:10;;;;;;;11.63;10.43;;;22.50;60.00;;;;;;5068673;28;20033;-82
2023/05/09 11:57:44;;;;;;;10.05;7.60;;;22.20;60.70;;;;;;5057498;28;20025;-82
2023/05/09 12:00:10;;;;;;;7.15;5.35;;;22.00;62.00;;;;;;5043561;28;20513;-81
2023/05/09 12:02:37;;;;;;;7.28;6.20;;;22.20;62.50;;;;;;5027155;28;20089;-80
2023/05/09 12:05:14;;;;;;;11.18;10.07;;;22.60;61.60;;;;;;5044879;28;20025;-82
2023/05/09 12:07:41;;;;;;;8.48;7.28;;;22.70;59.80;;;;;;5044210;28;20029;-82
2023/05/09 12:10:08;;;;;;;12.70;11.35;;;22.70;60.60;;;;;;5024948;28;20056;-83
2023/05/09 12:12:41;;;;;;;10.40;9.40;;;22.70;59.80;;;;;;5045161;28;20018;-81
2023/05/09 12:15:08;;;;;;;13.75;10.25;;;22.50;60.40;;;;;;5025563;28;20075;-82
2023/05/09 12:17:34;;;;;;;7.95;7.15;;;22.50;60.80;;;;;;5048274;28;20029;-82
2023/05/09 12:20:03;;;;;;;9.70;8.02;;;22.40;61.30;;;;;;5050305;28;20037;-80
2023/05/09 12:22:29;;;;;;;12.13;11.00;;;22.70;60.90;;;;;;5062065;28;20021;-78
2023/05/09 12:24:55;;;;;;;11.10;9.70;;;22.80;59.80;;;;;;5072845;28;20009;-80
2023/05/09 12:27:22;;;;;;;11.60;10.38;;;22.80;59.70;;;;;;5075508;28;20089;-79
2023/05/09 12:29:47;;;;;;;9.38;8.35;;;22.60;59.80;;;;;;5074508;28;20036;-79
2023/05/09 12:32:15;;;;;;;15.93;11.93;;;22.50;60.50;;;;;;5042071;28;20038;-78
2023/05/09 12:34:43;;;;;;;16.45;10.77;;;22.50;60.10;;;;;;5034661;28;20029;-78
2023/05/09 12:37:16;;;;;;;13.35;11.90;;;;;;;;;;5017895;28;20033;-77
2023/05/09 12:39:44;;;;;;;10.65;9.50;;;22.40;59.80;;;;;;5035763;28;20060;-77
2023/05/09 12:42:13;;;;;;;10.60;8.48;;;22.20;61.00;;;;;;5033870;28;20089;-80
2023/05/09 12:44:39;;;;;;;9.98;7.40;;;22.20;61.40;;;;;;5033338;28;20052;-78
2023/05/09 12:47:05;;;;;;;9.68;8.77;;;22.40;61.30;;;;;;5017397;28;20056;-78
2023/05/09 12:49:31;;;;;;;10.45;9.45;;;22.60;59.90;;;;;;5008673;28;20029;-83
2023/05/09 12:51:59;;;;;;;7.28;6.47;;;22.70;60.00;;;;;;5047557;28;20088;-83
2023/05/09 12:54:26;;;;;;;12.55;8.02;;;22.90;60.40;;;;;;5038243;28;20032;-84
2023/05/09 12:56:55;;;;;;;5.95;5.35;;;23.10;59.50;;;;;;5061923;28;20025;-81
2023/05/09 12:59:25;;;;;;;4.85;4.35;;;23.30;59.30;;;;;;5061618;28;20029;-80
2023/05/09 13:01:56;;;;;;;8.27;7.45;;;23.40;59.00;;;;;;5061718;28;20021;-80